createdAt,value
2023-04-07T00:02:25.773Z,104752.41
2023-04-07T00:04:53.865Z,104761.22
2023-04-07T00:07:21.894Z,104785.25
2023-04-07T00:09:49.936Z,104818.44
2023-04-07T00:12:17.949Z,104865.06
2023-04-07T00:14:47.222Z,104915.16
2023-04-07T00:17:15.123Z,104996.97
2023-04-07T00:19:43.883Z,105022.00
2023-04-07T00:22:11.840Z,105056.13
2023-04-07T00:24:39.580Z,105104.59
2023-04-07T00:27:07.473Z,105060.63
2023-04-07T00:29:35.403Z,105054.22
2023-04-07T00:32:04.865Z,105096.69
2023-04-07T00:34:33.541Z,105077.47
2023-04-07T00:37:01.245Z,105131.38
2023-04-07T00:39:28.976Z,105168.13
2023-04-07T00:41:58.189Z,105161.72
2023-04-07T00:44:27.526Z,105163.53
2023-04-07T00:46:55.466Z,105178.63
2023-04-07T00:49:24.682Z,105234.41
2023-04-07T00:51:52.496Z,105284.00
2023-04-07T00:54:20.797Z,105282.31
2023-04-07T00:56:48.633Z,105290.44
2023-04-07T00:59:16.922Z,105373.91
2023-04-07T01:01:47.737Z,105344.63
2023-04-07T01:04:23.780Z,105292.41
2023-04-07T01:07:00.397Z,105233.25
2023-04-07T01:09:39.732Z,105161.50
2023-04-07T01:12:14.744Z,105126.63
2023-04-07T01:14:48.145Z,105054.00
2023-04-07T01:17:40.399Z,104978.53
2023-04-07T01:20:12.591Z,104942.63
2023-04-07T01:22:47.067Z,104956.06
2023-04-07T01:25:30.449Z,105069.41
2023-04-07T01:28:15.195Z,105060.47
2023-04-07T01:30:45.933Z,105049.72
2023-04-07T01:33:15.757Z,105025.50
2023-04-07T01:35:44.358Z,105003.06
2023-04-07T01:38:13.621Z,104994.97
2023-04-07T01:40:42.262Z,104994.16
2023-04-07T01:43:11.152Z,105000.44
2023-04-07T01:45:40.638Z,104978.91
2023-04-07T01:48:10.964Z,104968.22
2023-04-07T01:50:40.666Z,104974.59
2023-04-07T01:53:09.329Z,104946.78
2023-04-07T01:55:37.144Z,104932.41
2023-04-07T01:58:09.866Z,104913.63
2023-04-07T02:00:42.373Z,104879.56
2023-04-07T02:03:21.832Z,104862.47
2023-04-07T02:05:53.545Z,104876.97
2023-04-07T02:08:25.437Z,104865.28
2023-04-07T02:10:54.541Z,104909.34
2023-04-07T02:13:23.580Z,104952.63
2023-04-07T02:15:54.715Z,104937.44
2023-04-07T02:18:25.600Z,104909.66
2023-04-07T02:20:54.503Z,104841.31
2023-04-07T02:23:22.379Z,104830.69
2023-04-07T02:25:50.190Z,104786.66
2023-04-07T02:28:18.011Z,104702.34
2023-04-07T02:30:46.873Z,104652.03
2023-04-07T02:33:14.680Z,104630.53
2023-04-07T02:35:45.976Z,104610.72
2023-04-07T02:38:13.888Z,104591.97
2023-04-07T02:40:41.980Z,104520.94
2023-04-07T02:43:09.766Z,104521.91
2023-04-07T02:45:37.632Z,104487.75
2023-04-07T02:48:05.818Z,104427.69
2023-04-07T02:50:33.565Z,104359.41
2023-04-07T02:53:02.884Z,104389.88
2023-04-07T02:55:30.640Z,104427.59
2023-04-07T02:57:58.384Z,104429.34
2023-04-07T03:00:36.604Z,104468.00
2023-04-07T03:03:10.383Z,104473.41
2023-04-07T03:05:40.979Z,104469.75
2023-04-07T03:08:13.099Z,104474.28
2023-04-07T03:10:41.622Z,104487.78
2023-04-07T03:13:12.725Z,104469.81
2023-04-07T03:15:41.075Z,104394.38
2023-04-07T03:18:08.985Z,104380.91
2023-04-07T03:20:37.041Z,104335.06
2023-04-07T03:23:13.039Z,104329.72
2023-04-07T03:25:40.974Z,104294.69
2023-04-07T03:28:09.247Z,104257.91
2023-04-07T03:30:39.658Z,104145.66
2023-04-07T03:33:08.302Z,104063.94
2023-04-07T03:35:36.115Z,104011.84
2023-04-07T03:38:03.965Z,103936.47
2023-04-07T03:40:33.715Z,103840.34
2023-04-07T03:43:01.840Z,103744.28
2023-04-07T03:45:30.533Z,103691.38
2023-04-07T03:47:58.784Z,103629.19
2023-04-07T03:50:26.815Z,103596.16
2023-04-07T03:53:08.289Z,103559.47
2023-04-07T03:55:38.925Z,103543.22
2023-04-07T03:58:14.804Z,103521.75
2023-04-07T04:00:43.920Z,103525.16
2023-04-07T04:03:13.530Z,103484.91
2023-04-07T04:06:04.305Z,103470.72
2023-04-07T04:08:33.778Z,103493.25
2023-04-07T04:11:03.484Z,103514.75
2023-04-07T04:13:37.487Z,103544.41
2023-04-07T04:16:07.593Z,103557.75
2023-04-07T04:18:37.737Z,103558.69
2023-04-07T04:21:08.629Z,103512.84
2023-04-07T04:23:37.832Z,103536.25
2023-04-07T04:26:07.152Z,103538.03
2023-04-07T04:28:35.712Z,103539.84
2023-04-07T04:31:06.025Z,103516.63
2023-04-07T04:33:40.467Z,103533.53
2023-04-07T04:36:08.639Z,103495.00
2023-04-07T04:38:36.776Z,103436.75
2023-04-07T04:41:18.645Z,103446.56
2023-04-07T04:43:47.982Z,103459.13
2023-04-07T04:46:20.327Z,103437.50
2023-04-07T04:48:49.406Z,103423.09
2023-04-07T04:51:18.831Z,103376.66
2023-04-07T04:53:51.146Z,103396.84
2023-04-07T04:56:21.831Z,103401.41
2023-04-07T04:58:51.012Z,103367.59
2023-04-07T05:01:33.646Z,103360.28
2023-04-07T05:04:10.738Z,103329.00
2023-04-07T05:06:43.427Z,103324.47
2023-04-07T05:09:13.900Z,103311.00
2023-04-07T05:11:48.567Z,103285.75
2023-04-07T05:14:16.752Z,103251.78
2023-04-07T05:16:51.457Z,103218.59
2023-04-07T05:19:23.599Z,103173.75
2023-04-07T05:21:54.794Z,103137.00
2023-04-07T05:24:26.097Z,103122.81
2023-04-07T05:26:58.439Z,103109.13
2023-04-07T05:29:27.216Z,103085.69
2023-04-07T05:31:56.407Z,103027.47
2023-04-07T05:34:24.892Z,103005.97
2023-04-07T05:36:55.502Z,102964.34
2023-04-07T05:39:23.277Z,102910.78
2023-04-07T05:41:54.548Z,102859.91
2023-04-07T05:44:27.510Z,102833.41
2023-04-07T05:46:56.135Z,102786.84
2023-04-07T05:49:26.587Z,102751.34
2023-04-07T05:52:03.416Z,102734.66
2023-04-07T05:54:31.811Z,102657.63
2023-04-07T05:57:02.408Z,102622.19
2023-04-07T05:59:33.263Z,102594.44
2023-04-07T06:02:02.446Z,102607.56
2023-04-07T06:04:31.607Z,102561.94
2023-04-07T06:07:01.220Z,102532.28
2023-04-07T06:09:29.104Z,102503.22
2023-04-07T06:11:57.620Z,102480.06
2023-04-07T06:14:25.927Z,102446.25
2023-04-07T06:16:55.399Z,102424.06
2023-04-07T06:19:23.857Z,102384.91
2023-04-07T06:21:51.623Z,102352.81
2023-04-07T06:24:22.645Z,102330.31
2023-04-07T06:26:50.612Z,102303.81
2023-04-07T06:29:18.495Z,102317.75
2023-04-07T06:31:46.372Z,102291.38
2023-04-07T06:34:16.506Z,102295.38
2023-04-07T06:36:45.263Z,102284.44
2023-04-07T06:39:13.894Z,102271.22
2023-04-07T06:41:43.261Z,102258.34
2023-04-07T06:44:11.551Z,102244.91
2023-04-07T06:46:41.785Z,102218.06
2023-04-07T06:49:09.837Z,102180.25
2023-04-07T06:51:39.301Z,102116.44
2023-04-07T06:54:12.765Z,102103.81
2023-04-07T06:56:40.825Z,102035.69
2023-04-07T06:59:08.890Z,101956.22
2023-04-07T07:01:37.707Z,101928.56
2023-04-07T07:04:07.104Z,101867.88
2023-04-07T07:06:34.977Z,101855.56
2023-04-07T07:09:04.553Z,101863.22
2023-04-07T07:11:32.306Z,101837.25
2023-04-07T07:14:00.128Z,101802.38
2023-04-07T07:16:28.955Z,101773.91
2023-04-07T07:18:56.690Z,101771.63
2023-04-07T07:21:24.442Z,101749.97
2023-04-07T07:23:52.229Z,101784.84
2023-04-07T07:26:22.031Z,101756.59
2023-04-07T07:28:49.940Z,101788.44
2023-04-07T07:31:17.839Z,101744.13
2023-04-07T07:33:51.528Z,101734.81
2023-04-07T07:36:19.498Z,101754.97
2023-04-07T07:38:48.061Z,101797.22
2023-04-07T07:41:16.165Z,101794.03
2023-04-07T07:43:45.601Z,101808.56
2023-04-07T07:46:13.621Z,101817.69
2023-04-07T07:48:41.548Z,101876.56
2023-04-07T07:51:09.348Z,101863.91
2023-04-07T07:53:37.493Z,101877.34
2023-04-07T07:56:05.442Z,101892.81
2023-04-07T07:58:33.254Z,101903.00
2023-04-07T08:01:02.649Z,101943.97
2023-04-07T08:03:30.641Z,101965.19
2023-04-07T08:05:58.560Z,102007.97
2023-04-07T08:08:26.361Z,102030.41
2023-04-07T08:10:54.180Z,102071.59
2023-04-07T08:13:21.897Z,102095.53
2023-04-07T08:15:49.884Z,102094.38
2023-04-07T08:18:19.444Z,102086.44
2023-04-07T08:20:47.874Z,102092.22
2023-04-07T08:23:15.895Z,102109.34
2023-04-07T08:25:43.694Z,102152.50
2023-04-07T08:28:11.493Z,102195.41
2023-04-07T08:30:39.441Z,102234.22
2023-04-07T08:33:07.442Z,102282.53
2023-04-07T08:35:36.887Z,102315.09
2023-04-07T08:38:05.737Z,102360.69
2023-04-07T08:40:33.834Z,102413.34
2023-04-07T08:43:06.194Z,102433.75
2023-04-07T08:45:35.125Z,102449.38
2023-04-07T08:48:12.302Z,102479.84
2023-04-07T08:50:45.391Z,102513.72
2023-04-07T08:53:14.422Z,102524.50
2023-04-07T08:55:42.590Z,102549.38
2023-04-07T08:58:12.422Z,102545.31
2023-04-07T09:00:42.844Z,102571.63
2023-04-07T09:03:11.950Z,102537.63
2023-04-07T09:05:41.912Z,102528.75
2023-04-07T09:08:09.668Z,102478.75
2023-04-07T09:10:37.893Z,102419.97
2023-04-07T09:13:06.175Z,102415.63
2023-04-07T09:15:35.815Z,102434.94
2023-04-07T09:18:05.097Z,102421.19
2023-04-07T09:21:02.425Z,102383.91
2023-04-07T09:23:32.529Z,102377.63
2023-04-07T09:26:01.783Z,102334.41
2023-04-07T09:28:46.653Z,102265.72
2023-04-07T09:31:14.665Z,102258.63
2023-04-07T09:33:42.937Z,102259.69
2023-04-07T09:36:12.342Z,102260.91
2023-04-07T09:38:41.664Z,102250.28
2023-04-07T09:41:11.276Z,102253.09
2023-04-07T09:43:41.634Z,102246.88
2023-04-07T09:46:13.805Z,102269.09
2023-04-07T09:48:42.652Z,102225.66
2023-04-07T09:51:13.819Z,102198.84
2023-04-07T09:53:47.693Z,102191.72
2023-04-07T09:56:17.325Z,102215.69
2023-04-07T09:58:47.176Z,102198.72
2023-04-07T10:01:16.798Z,102211.81
2023-04-07T10:03:47.408Z,102182.88
2023-04-07T10:06:17.968Z,102150.56
2023-04-07T10:08:46.124Z,102077.19
2023-04-07T10:11:14.204Z,102048.91
2023-04-07T10:13:42.514Z,101991.31
2023-04-07T10:16:10.799Z,101989.50
2023-04-07T10:18:42.937Z,101939.59
2023-04-07T10:21:15.620Z,101927.78
2023-04-07T10:23:56.152Z,101895.97
2023-04-07T10:26:33.302Z,101807.09
2023-04-07T10:29:06.014Z,101771.00
2023-04-07T10:31:35.142Z,101727.50
2023-04-07T10:34:05.878Z,101719.97
2023-04-07T10:36:34.882Z,101659.91
2023-04-07T10:39:24.279Z,101639.59
2023-04-07T10:41:53.415Z,101598.81
2023-04-07T10:44:50.965Z,101550.78
2023-04-07T10:47:22.045Z,101536.25
2023-04-07T10:50:19.397Z,101530.66
2023-04-07T10:52:49.545Z,101522.09
2023-04-07T10:55:34.980Z,101497.16
2023-04-07T10:58:24.664Z,101441.41
2023-04-07T11:01:24.473Z,101417.66
2023-04-07T11:03:59.166Z,101385.19
2023-04-07T11:06:30.332Z,101364.94
2023-04-07T11:09:01.132Z,101343.47
2023-04-07T11:11:44.722Z,101327.22
2023-04-07T11:14:13.203Z,101302.69
2023-04-07T11:16:46.162Z,101235.72
2023-04-07T11:19:19.354Z,101177.66
2023-04-07T11:21:47.947Z,101156.00
2023-04-07T11:24:34.185Z,101162.50
2023-04-07T11:27:04.072Z,101157.59
2023-04-07T11:29:33.028Z,101150.00
2023-04-07T11:32:03.523Z,101121.38
2023-04-07T11:34:32.275Z,101083.78
2023-04-07T11:37:19.630Z,101036.34
2023-04-07T11:39:54.897Z,101000.88
2023-04-07T11:42:34.566Z,101000.50
2023-04-07T11:45:02.390Z,100992.09
2023-04-07T11:47:37.215Z,100986.56
2023-04-07T11:50:06.407Z,100968.16
2023-04-07T11:52:42.907Z,100957.59
2023-04-07T11:55:21.522Z,100934.16
2023-04-07T11:57:52.310Z,100915.53
2023-04-07T12:00:21.523Z,100921.97
2023-04-07T12:02:49.408Z,100945.31
2023-04-07T12:05:17.667Z,100955.59
2023-04-07T12:07:55.436Z,100952.53
2023-04-07T12:10:25.572Z,100938.28
2023-04-07T12:12:54.729Z,100921.31
2023-04-07T12:15:22.949Z,100916.06
2023-04-07T12:17:50.817Z,100945.22
2023-04-07T12:20:19.054Z,100959.75
2023-04-07T12:22:47.522Z,100978.19
2023-04-07T12:25:15.413Z,101022.28
2023-04-07T12:27:43.943Z,101033.69
2023-04-07T12:30:14.392Z,101065.88
2023-04-07T12:32:42.667Z,101069.34
2023-04-07T12:35:10.562Z,101092.13
2023-04-07T12:37:39.607Z,101095.56
2023-04-07T12:40:08.874Z,101126.53
2023-04-07T12:42:36.943Z,101145.66
2023-04-07T12:45:05.434Z,101133.03
2023-04-07T12:47:35.051Z,101121.81
2023-04-07T12:50:03.685Z,101128.53
2023-04-07T12:52:32.016Z,101128.81
2023-04-07T12:54:59.778Z,101125.22
2023-04-07T12:57:27.570Z,101103.13
2023-04-07T12:59:55.406Z,101092.13
2023-04-07T13:02:23.502Z,101074.94
2023-04-07T13:04:53.013Z,101094.56
2023-04-07T13:07:21.932Z,101119.16
2023-04-07T13:09:49.672Z,101158.41
2023-04-07T13:12:17.940Z,101191.84
2023-04-07T13:14:56.875Z,101190.56
2023-04-07T13:17:29.000Z,101173.25
2023-04-07T13:19:59.205Z,101162.63
2023-04-07T13:22:27.549Z,101164.88
2023-04-07T13:24:55.634Z,101206.09
2023-04-07T13:27:23.405Z,101231.53
2023-04-07T13:29:51.139Z,101241.63
2023-04-07T13:32:18.947Z,101257.91
2023-04-07T13:34:46.720Z,101277.44
2023-04-07T13:37:16.640Z,101293.06
2023-04-07T13:39:44.461Z,101311.28
2023-04-07T13:42:12.746Z,101340.97
2023-04-07T13:44:40.484Z,101345.47
2023-04-07T13:47:08.736Z,101335.00
2023-04-07T13:49:36.839Z,101331.75
2023-04-07T13:52:04.678Z,101321.81
2023-04-07T13:54:33.950Z,101311.78
2023-04-07T13:57:01.900Z,101310.97
2023-04-07T13:59:29.657Z,101332.06
2023-04-07T14:01:57.549Z,101337.78
2023-04-07T14:04:25.462Z,101344.44
2023-04-07T14:06:53.279Z,101308.75
2023-04-07T14:09:21.394Z,101314.22
2023-04-07T14:11:50.582Z,101327.03
2023-04-07T14:14:18.367Z,101345.47
2023-04-07T14:16:46.169Z,101364.88
2023-04-07T14:19:14.248Z,101373.84
2023-04-07T14:21:42.124Z,101384.38
2023-04-07T14:24:09.926Z,101389.50
2023-04-07T14:26:37.754Z,101365.38
2023-04-07T14:29:06.895Z,101346.53
2023-04-07T14:31:35.100Z,101354.53
2023-04-07T14:34:02.945Z,101376.75
2023-04-07T14:36:31.588Z,101374.03
2023-04-07T14:38:59.483Z,101354.31
2023-04-07T14:41:27.226Z,101305.06
2023-04-07T14:43:56.721Z,101268.22
2023-04-07T14:46:27.414Z,101253.22
2023-04-07T14:48:55.919Z,101275.66
2023-04-07T14:51:23.638Z,101294.75
2023-04-07T14:53:56.122Z,101339.00
2023-04-07T14:56:25.756Z,101355.91
2023-04-07T14:58:53.486Z,101351.94
2023-04-07T15:01:21.529Z,101326.59
2023-04-07T15:03:52.733Z,101315.56
2023-04-07T15:06:21.162Z,101316.56
2023-04-07T15:08:49.016Z,101325.00
2023-04-07T15:11:16.724Z,101306.38
2023-04-07T15:13:44.465Z,101312.78
2023-04-07T15:16:14.099Z,101313.06
2023-04-07T15:18:44.437Z,101302.88
2023-04-07T15:21:15.599Z,101289.69
2023-04-07T15:23:44.102Z,101272.69
2023-04-07T15:26:11.827Z,101284.38
2023-04-07T15:28:40.080Z,101270.00
2023-04-07T15:31:09.898Z,101285.38
2023-04-07T15:33:38.900Z,101284.72
2023-04-07T15:36:07.958Z,101250.31
2023-04-07T15:38:38.875Z,101261.06
2023-04-07T15:41:07.113Z,101243.25
2023-04-07T15:43:35.605Z,101253.59
2023-04-07T15:46:03.372Z,101278.91
2023-04-07T15:48:31.442Z,101284.25
2023-04-07T15:50:59.358Z,101299.38
2023-04-07T15:53:27.240Z,101313.72
2023-04-07T15:55:56.415Z,101324.44
2023-04-07T15:58:24.217Z,101333.41
2023-04-07T16:00:52.642Z,101327.69
2023-04-07T16:03:20.727Z,101330.06
2023-04-07T16:05:48.594Z,101358.09
2023-04-07T16:08:16.296Z,101378.28
2023-04-07T16:10:44.433Z,101408.72
2023-04-07T16:13:13.631Z,101428.31
2023-04-07T16:15:41.931Z,101438.66
2023-04-07T16:18:12.077Z,101433.06
2023-04-07T16:20:39.982Z,101442.69
2023-04-07T16:23:07.735Z,101471.63
2023-04-07T16:25:36.344Z,101475.44
2023-04-07T16:28:04.337Z,101497.28
2023-04-07T16:30:33.602Z,101525.13
2023-04-07T16:33:01.570Z,101554.88
2023-04-07T16:35:32.588Z,101586.63
2023-04-07T16:38:04.100Z,101639.44
2023-04-07T16:40:32.035Z,101686.75
2023-04-07T16:42:59.935Z,101738.75
2023-04-07T16:45:28.034Z,101788.53
2023-04-07T16:47:57.342Z,101838.84
2023-04-07T16:50:25.065Z,101875.66
2023-04-07T16:52:53.034Z,101921.28
2023-04-07T16:55:21.113Z,101953.50
2023-04-07T16:57:50.093Z,101988.72
2023-04-07T17:00:19.295Z,102019.84
2023-04-07T17:02:47.177Z,102052.97
2023-04-07T17:05:17.261Z,102068.50
2023-04-07T17:07:44.989Z,102109.69
2023-04-07T17:10:13.985Z,102142.16
2023-04-07T17:12:41.710Z,102170.97
2023-04-07T17:15:10.204Z,102211.50
2023-04-07T17:17:39.240Z,102248.16
2023-04-07T17:20:08.223Z,102279.66
2023-04-07T17:22:37.425Z,102320.16
2023-04-07T17:25:06.567Z,102344.41
2023-04-07T17:27:34.812Z,102369.63
2023-04-07T17:30:03.129Z,102400.13
2023-04-07T17:32:30.993Z,102434.31
2023-04-07T17:34:58.917Z,102438.13
2023-04-07T17:37:26.795Z,102460.41
2023-04-07T17:39:56.005Z,102457.91
2023-04-07T17:42:23.871Z,102451.41
2023-04-07T17:44:53.703Z,102428.44
2023-04-07T17:47:21.664Z,102436.53
2023-04-07T17:49:49.403Z,102438.19
2023-04-07T17:52:17.512Z,102450.75
2023-04-07T17:54:45.263Z,102446.91
2023-04-07T17:57:15.920Z,102438.06
2023-04-07T17:59:43.752Z,102444.41
2023-04-07T18:02:11.813Z,102442.72
2023-04-07T18:04:40.474Z,102445.44
2023-04-07T18:07:08.786Z,102471.44
2023-04-07T18:09:36.833Z,102483.19
2023-04-07T18:12:04.854Z,102484.84
2023-04-07T18:14:34.351Z,102494.91
2023-04-07T18:17:02.262Z,102498.44
2023-04-07T18:19:31.224Z,102513.84
2023-04-07T18:22:00.177Z,102532.81
2023-04-07T18:24:27.995Z,102577.56
2023-04-07T18:26:56.756Z,102594.81
2023-04-07T18:29:24.688Z,102617.38
2023-04-07T18:31:54.118Z,102644.50
2023-04-07T18:34:21.918Z,102679.78
2023-04-07T18:36:50.100Z,102728.13
2023-04-07T18:39:17.834Z,102757.72
2023-04-07T18:41:47.520Z,102784.72
2023-04-07T18:44:15.964Z,102815.16
2023-04-07T18:46:44.180Z,102850.81
2023-04-07T18:49:13.534Z,102867.25
2023-04-07T18:51:42.426Z,102898.50
2023-04-07T18:54:10.340Z,102909.31
2023-04-07T18:56:38.422Z,102920.09
2023-04-07T18:59:07.224Z,102940.63
2023-04-07T19:01:35.142Z,102954.09
2023-04-07T19:04:03.717Z,102943.41
2023-04-07T19:06:33.624Z,102926.63
2023-04-07T19:09:03.810Z,102942.56
2023-04-07T19:11:31.551Z,102926.47
2023-04-07T19:13:59.392Z,102902.22
2023-04-07T19:16:27.588Z,102891.44
2023-04-07T19:18:55.646Z,102884.53
2023-04-07T19:21:23.536Z,102904.22
2023-04-07T19:23:52.917Z,102882.03
2023-04-07T19:26:21.412Z,102919.47
2023-04-07T19:28:49.701Z,102913.19
2023-04-07T19:31:18.101Z,102909.81
2023-04-07T19:33:46.017Z,102944.69
2023-04-07T19:36:14.129Z,102963.53
2023-04-07T19:38:41.999Z,102977.94
2023-04-07T19:41:11.377Z,102999.56
2023-04-07T19:43:39.082Z,102932.63
2023-04-07T19:46:08.874Z,102912.19
2023-04-07T19:48:42.482Z,102883.59
2023-04-07T19:51:10.248Z,102877.25
2023-04-07T19:53:38.035Z,102863.84
2023-04-07T19:56:06.181Z,102852.72
2023-04-07T19:58:35.600Z,102772.78
2023-04-07T20:01:04.491Z,102740.81
2023-04-07T20:03:32.545Z,102721.09
2023-04-07T20:06:01.075Z,102706.22
2023-04-07T20:08:28.873Z,102667.00
2023-04-07T20:10:56.763Z,102648.94
2023-04-07T20:13:24.588Z,102638.16
2023-04-07T20:15:53.831Z,102612.22
2023-04-07T20:18:21.563Z,102603.47
2023-04-07T20:20:50.296Z,102585.66
2023-04-07T20:23:22.126Z,102586.44
2023-04-07T20:25:50.036Z,102593.38
2023-04-07T20:28:17.777Z,102589.72
2023-04-07T20:30:46.333Z,102568.66
2023-04-07T20:33:15.708Z,102588.19
2023-04-07T20:35:43.654Z,102582.94
2023-04-07T20:38:11.607Z,102608.00
2023-04-07T20:40:39.462Z,102616.31
2023-04-07T20:43:07.477Z,102657.44
2023-04-07T20:45:35.250Z,102661.28
2023-04-07T20:48:03.128Z,102675.66
2023-04-07T20:50:33.229Z,102715.03
2023-04-07T20:53:01.305Z,102740.13
2023-04-07T20:55:29.540Z,102758.28
2023-04-07T20:57:57.417Z,102809.25
2023-04-07T21:00:25.983Z,102847.81
2023-04-07T21:02:54.384Z,102878.31
2023-04-07T21:05:22.423Z,102904.44
2023-04-07T21:07:51.559Z,102913.47
2023-04-07T21:10:19.608Z,102930.69
2023-04-07T21:12:47.524Z,102953.06
2023-04-07T21:15:15.785Z,102976.28
2023-04-07T21:17:43.727Z,102990.63
2023-04-07T21:20:12.569Z,103008.72
2023-04-07T21:22:40.481Z,103040.03
2023-04-07T21:25:10.726Z,103046.56
2023-04-07T21:27:38.579Z,103061.84
2023-04-07T21:30:07.260Z,103071.66
2023-04-07T21:32:35.207Z,103084.41
2023-04-07T21:35:03.740Z,103094.28
2023-04-07T21:37:31.950Z,103129.25
2023-04-07T21:39:59.716Z,103157.00
2023-04-07T21:42:28.916Z,103176.81
2023-04-07T21:44:57.039Z,103195.66
2023-04-07T21:47:24.976Z,103208.28
2023-04-07T21:49:53.399Z,103231.56
2023-04-07T21:52:21.297Z,103279.03
2023-04-07T21:54:49.102Z,103291.66
2023-04-07T21:57:16.927Z,103298.06
2023-04-07T21:59:46.188Z,103329.38
2023-04-07T22:02:14.422Z,103340.16
2023-04-07T22:04:42.837Z,103365.22
2023-04-07T22:07:11.568Z,103377.88
2023-04-07T22:09:39.443Z,103386.81
2023-04-07T22:12:07.267Z,103392.25
2023-04-07T22:14:35.025Z,103398.59
2023-04-07T22:17:04.386Z,103429.91
2023-04-07T22:19:32.275Z,103440.69
2023-04-07T22:22:00.497Z,103452.44
2023-04-07T22:24:28.357Z,103479.31
2023-04-07T22:26:57.267Z,103484.69
2023-04-07T22:29:25.118Z,103511.63
2023-04-07T22:31:53.059Z,103524.13
2023-04-07T22:34:22.631Z,103540.31
2023-04-07T22:36:50.374Z,103532.34
2023-04-07T22:39:18.152Z,103552.09
2023-04-07T22:41:45.938Z,103567.31
2023-04-07T22:44:13.910Z,103580.75
2023-04-07T22:46:41.889Z,103605.88
2023-04-07T22:49:09.803Z,103602.31
2023-04-07T22:51:39.066Z,103615.75
2023-04-07T22:54:06.839Z,103618.47
2023-04-07T22:56:34.608Z,103619.38
2023-04-07T22:59:05.642Z,103631.03
2023-04-07T23:01:34.305Z,103622.97
2023-04-07T23:04:02.314Z,103628.34
2023-04-07T23:06:30.013Z,103647.22
2023-04-07T23:08:59.616Z,103657.97
2023-04-07T23:11:27.396Z,103667.81
2023-04-07T23:13:55.302Z,103678.56
2023-04-07T23:16:24.313Z,103675.00
2023-04-07T23:18:52.352Z,103669.63
2023-04-07T23:21:20.157Z,103657.06
2023-04-07T23:23:48.669Z,103647.16
2023-04-07T23:26:17.940Z,103635.50
2023-04-07T23:28:46.283Z,103622.94
2023-04-07T23:31:14.405Z,103610.44
2023-04-07T23:33:42.321Z,103619.34
2023-04-07T23:36:10.225Z,103599.66
2023-04-07T23:38:39.497Z,103588.88
2023-04-07T23:41:07.656Z,103577.22
2023-04-07T23:43:36.849Z,103575.38
2023-04-07T23:46:04.888Z,103566.41
2023-04-07T23:48:32.703Z,103554.75
2023-04-07T23:51:00.892Z,103530.56
2023-04-07T23:53:28.853Z,103526.03
2023-04-07T23:55:56.875Z,103506.25
2023-04-07T23:58:25.293Z,103489.19
